Historique des mesures à Cassis (13260), France
Quotidien Résumé Juin 5, 2021 Unités:  US    Métrique   Métrique/US
Quotidien Hebdomadaire Mensuel Annuel
  Maximum: Minimum: Moyenne:
Température: 61 °F 47.8 °F 53.1 °F
Point de rosée: 44.1 °F 32.5 °F 37.6 °F
Humidité: 62% 49% 56%
Vitesse du vent: 11.4mph 0mph 5mph
Rafales: 12.7mph - -
Vent- - WNW
Pression: 30.1 in 29.8 in -
Précipitations: 0.02 in    
Historical Graphs
 
 
Mesures pour : Juin 5, 2021
Heure Temperature Point de rosée Pression Vent Vitesse du vent Rafales Humidité Pluie (par heure)
00:10 47.8 °F 33.8 °F 29.8 in WNW 3.6 mph 6 mph 58% 0 in
01:11 48.7 °F 33.3 °F 29.9 in WNW 1.6 mph 6.3 mph 55% 0 in
02:10 49.1 °F 32.7 °F 29.8 in Calm   8.7 mph 53% 0 in
03:11 48 °F 32.5 °F 29.9 in NW 2.2 mph 9.2 mph 55% 0 in
04:10 48 °F 33.4 °F 29.9 in NW 4.5 mph 9.8 mph 57% 0 in
05:11 48 °F 33.1 °F 29.9 in NW 10.5 mph 12.7 mph 56% 0 in
06:10 48.2 °F 33.3 °F 29.9 in North 11.4 mph 11.4 mph 56% 0 in
07:11 47.8 °F 32.9 °F 29.9 in NNW 2.7 mph 11.4 mph 56% 0 in
08:10 49.3 °F 33.8 °F 29.9 in NNW 2.2 mph 9.2 mph 55% 0 in
09:11 52.5 °F 35.8 °F 29.9 in NNW 6 mph 9.8 mph 53% 0 in
10:10 53.8 °F 36.5 °F 29.9 in NNW 7.4 mph 9.4 mph 52% 0 in
11:11 56.5 °F 39 °F 30 in WNW 5.6 mph 11.2 mph 52% 0 in
12:10 56.8 °F 40.3 °F 29.9 in WNW 7.8 mph 9.6 mph 54% 0 in
13:11 57.6 °F 41.9 °F 30 in Calm   6.3 mph 56% 0.02 in
14:10 59.9 °F 44.1 °F 30 in West 1.6 mph 2 mph 56% 0 in
15:11 60.6 °F 43.3 °F 30 in WNW 6 mph 6 mph 53% 0 in
16:10 61 °F 41.7 °F 30 in WNW 10.5 mph 10.5 mph 49% 0 in
17:11 57.9 °F 41.4 °F 30 in WNW 7.8 mph 11.9 mph 54% 0 in
18:10 56.1 °F 41 °F 30 in NW 7 mph 10.5 mph 57% 0 in
19:11 54 °F 40.8 °F 30 in WNW 5.2 mph 7.4 mph 61% 0 in
20:10 53.2 °F 40.5 °F 30 in NW 3.8 mph 7.6 mph 62% 0 in
21:11 52.3 °F 39.7 °F 30.1 in WNW 3.4 mph 6.7 mph 62% 0 in
22:10 51.6 °F 39 °F 30.1 in NW 3.8 mph 9.8 mph 62% 0 in
23:11 52.3 °F 38.8 °F 30.1 in NNW 6.5 mph 10.5 mph 60% 0 in
Observations météo à CASSIS
WU-History script by Weather Underground - 2 mb